createdAt,value
2018-05-18T00:00:35.601Z,20.25
2018-05-18T00:01:35.492Z,20.26
2018-05-18T00:02:35.318Z,20.24
2018-05-18T00:03:35.423Z,20.25
2018-05-18T00:04:35.297Z,20.26
2018-05-18T00:05:35.453Z,20.24
2018-05-18T00:06:35.331Z,20.25
2018-05-18T00:07:35.351Z,20.25
2018-05-18T00:08:35.487Z,20.24
2018-05-18T00:09:35.584Z,20.25
2018-05-18T00:10:35.404Z,20.26
2018-05-18T00:11:35.268Z,20.24
2018-05-18T00:12:35.363Z,20.25
2018-05-18T00:13:35.496Z,20.25
2018-05-18T00:14:35.316Z,20.24
2018-05-18T00:15:35.732Z,20.25
2018-05-18T00:16:35.337Z,20.25
2018-05-18T00:17:35.269Z,20.24
2018-05-18T00:18:35.378Z,20.24
2018-05-18T00:19:35.447Z,20.25
2018-05-18T00:20:35.478Z,20.24
2018-05-18T00:21:35.500Z,20.24
2018-05-18T00:22:35.436Z,20.24
2018-05-18T00:23:35.366Z,20.24
2018-05-18T00:24:35.492Z,20.24
2018-05-18T00:25:35.318Z,20.24
2018-05-18T00:26:35.488Z,20.24
2018-05-18T00:27:35.426Z,20.24
2018-05-18T00:28:35.370Z,20.25
2018-05-18T00:29:35.379Z,20.24
2018-05-18T00:30:35.344Z,20.24
2018-05-18T00:31:35.336Z,20.24
2018-05-18T00:32:35.219Z,20.24
2018-05-18T00:33:35.295Z,20.24
2018-05-18T00:34:35.489Z,20.24
2018-05-18T00:35:35.273Z,20.23
2018-05-18T00:36:35.442Z,20.24
2018-05-18T00:37:35.492Z,20.24
2018-05-18T00:38:35.443Z,20.24
2018-05-18T00:39:35.300Z,20.24
2018-05-18T00:40:35.449Z,20.24
2018-05-18T00:41:35.456Z,20.23
2018-05-18T00:42:35.291Z,20.24
2018-05-18T00:43:35.381Z,20.24
2018-05-18T00:44:35.441Z,20.23
2018-05-18T00:45:35.421Z,20.24
2018-05-18T00:46:35.428Z,20.23
2018-05-18T00:47:35.352Z,20.22
2018-05-18T00:48:35.578Z,20.23
2018-05-18T00:49:35.511Z,20.23
2018-05-18T00:50:35.367Z,20.23
2018-05-18T00:51:35.405Z,20.23
2018-05-18T00:52:35.219Z,20.23
2018-05-18T00:53:35.374Z,20.22
2018-05-18T00:54:35.632Z,20.23
2018-05-18T00:55:35.256Z,20.23
2018-05-18T00:56:35.378Z,20.22
2018-05-18T00:57:35.393Z,20.23
2018-05-18T00:58:35.508Z,20.23
2018-05-18T00:59:35.358Z,20.21
2018-05-18T01:00:35.306Z,20.22
2018-05-18T01:01:35.260Z,20.23
2018-05-18T01:02:35.506Z,20.21
2018-05-18T01:03:35.482Z,20.22
2018-05-18T01:04:35.417Z,20.23
2018-05-18T01:05:35.426Z,20.23
2018-05-18T01:06:36.073Z,20.23
2018-05-18T01:07:35.929Z,20.23
2018-05-18T01:08:36.079Z,20.21
2018-05-18T01:09:36.372Z,20.23
2018-05-18T01:10:36.110Z,20.23
2018-05-18T01:11:36.192Z,20.21
2018-05-18T01:12:36.212Z,20.21
2018-05-18T01:13:36.178Z,20.21
2018-05-18T01:14:36.052Z,20.2
2018-05-18T01:15:36.196Z,20.21
2018-05-18T01:16:35.923Z,20.21
2018-05-18T01:17:37.455Z,20.2
2018-05-18T01:18:36.264Z,20.2
2018-05-18T01:19:35.314Z,20.21
2018-05-18T01:20:35.819Z,20.19
2018-05-18T01:21:35.291Z,20.2
2018-05-18T01:22:36.044Z,20.2
2018-05-18T01:23:35.992Z,20.2
2018-05-18T01:24:36.100Z,20.22
2018-05-18T01:25:36.161Z,20.21
2018-05-18T01:26:37.425Z,20.18
2018-05-18T01:27:36.065Z,20.19
2018-05-18T01:28:35.237Z,20.2
2018-05-18T01:29:35.940Z,20.19
2018-05-18T01:30:35.335Z,20.19
2018-05-18T01:31:35.743Z,20.21
2018-05-18T01:32:36.149Z,20.18
2018-05-18T01:33:36.137Z,20.19
2018-05-18T01:34:35.904Z,20.19
2018-05-18T01:35:36.899Z,20.19
2018-05-18T01:36:36.108Z,20.2
2018-05-18T01:37:35.360Z,20.19
2018-05-18T01:38:35.890Z,20.18
2018-05-18T01:39:35.897Z,20.19
2018-05-18T01:40:36.039Z,20.19
2018-05-18T01:41:35.873Z,20.18
2018-05-18T01:42:35.864Z,20.18
2018-05-18T01:43:36.129Z,20.2
2018-05-18T01:44:36.085Z,20.18
2018-05-18T01:45:36.618Z,20.19
2018-05-18T01:46:36.299Z,20.2
2018-05-18T01:47:35.337Z,20.18
2018-05-18T01:48:36.200Z,20.19
2018-05-18T01:49:36.234Z,20.19
2018-05-18T01:50:35.232Z,20.18
2018-05-18T01:51:36.147Z,20.18
2018-05-18T01:52:36.337Z,20.19
2018-05-18T01:53:36.072Z,20.17
2018-05-18T01:54:35.424Z,20.18
2018-05-18T01:55:35.198Z,20.18
2018-05-18T01:56:35.870Z,20.18
2018-05-18T01:57:36.003Z,20.19
2018-05-18T01:58:35.309Z,20.19
2018-05-18T01:59:36.034Z,20.17
2018-05-18T02:00:36.257Z,20.18
2018-05-18T02:01:36.025Z,20.18
2018-05-18T02:02:36.142Z,20.18
2018-05-18T02:03:36.097Z,20.18
2018-05-18T02:04:35.262Z,20.18
2018-05-18T02:05:35.668Z,20.17
2018-05-18T02:06:35.360Z,20.18
2018-05-18T02:07:35.445Z,20.18
2018-05-18T02:08:35.336Z,20.17
2018-05-18T02:09:35.306Z,20.18
2018-05-18T02:10:37.960Z,20.18
2018-05-18T02:11:35.453Z,20.18
2018-05-18T02:12:35.608Z,20.18
2018-05-18T02:13:35.452Z,20.18
2018-05-18T02:14:35.301Z,20.16
2018-05-18T02:15:35.422Z,20.17
2018-05-18T02:16:35.307Z,20.17
2018-05-18T02:17:35.424Z,20.17
2018-05-18T02:18:35.322Z,20.17
2018-05-18T02:19:35.393Z,20.18
2018-05-18T02:20:35.473Z,20.16
2018-05-18T02:21:35.353Z,20.17
2018-05-18T02:22:35.405Z,20.18
2018-05-18T02:23:35.407Z,20.15
2018-05-18T02:24:35.298Z,20.17
2018-05-18T02:25:37.759Z,20.16
2018-05-18T02:26:35.323Z,20.16
2018-05-18T02:27:35.438Z,20.16
2018-05-18T02:28:37.599Z,20.17
2018-05-18T02:29:35.354Z,20.15
2018-05-18T02:30:35.464Z,20.17
2018-05-18T02:31:35.460Z,20.17
2018-05-18T02:32:35.466Z,20.15
2018-05-18T02:33:35.482Z,20.16
2018-05-18T02:34:37.581Z,20.17
2018-05-18T02:35:35.336Z,20.15
2018-05-18T02:36:35.530Z,20.16
2018-05-18T02:37:35.408Z,20.17
2018-05-18T02:38:35.345Z,20.15
2018-05-18T02:39:35.315Z,20.16
2018-05-18T02:40:37.739Z,20.16
2018-05-18T02:41:35.344Z,20.15
2018-05-18T02:42:42.576Z,20.16
2018-05-18T02:43:35.453Z,20.16
2018-05-18T02:44:35.489Z,20.15
2018-05-18T02:45:35.464Z,20.16
2018-05-18T02:46:35.376Z,20.16
2018-05-18T02:47:35.427Z,20.14
2018-05-18T02:48:37.738Z,20.14
2018-05-18T02:49:35.409Z,20.14
2018-05-18T02:50:35.370Z,20.14
2018-05-18T02:51:37.364Z,20.15
2018-05-18T02:52:35.534Z,20.16
2018-05-18T02:53:35.425Z,20.13
2018-05-18T02:54:35.460Z,20.14
2018-05-18T02:55:35.368Z,20.15
2018-05-18T02:56:35.327Z,20.13
2018-05-18T02:57:35.552Z,20.14
2018-05-18T02:58:35.460Z,20.15
2018-05-18T02:59:35.335Z,20.14
2018-05-18T03:00:35.495Z,20.14
2018-05-18T03:01:35.463Z,20.14
2018-05-18T03:02:35.346Z,20.13
2018-05-18T03:03:35.510Z,20.13
2018-05-18T03:04:35.455Z,20.14
2018-05-18T03:05:35.756Z,20.13
2018-05-18T03:06:35.742Z,20.14
2018-05-18T03:07:36.353Z,20.13
2018-05-18T03:08:35.876Z,20.14
2018-05-18T03:09:35.193Z,20.15
2018-05-18T03:10:35.981Z,20.14
2018-05-18T03:11:35.652Z,20.13
2018-05-18T03:12:35.654Z,20.14
2018-05-18T03:13:35.644Z,20.15
2018-05-18T03:14:35.691Z,20.13
2018-05-18T03:15:35.727Z,20.13
2018-05-18T03:16:35.647Z,20.13
2018-05-18T03:17:35.941Z,20.13
2018-05-18T03:18:35.441Z,20.13
2018-05-18T03:19:35.344Z,20.14
2018-05-18T03:20:35.204Z,20.13
2018-05-18T03:21:35.262Z,20.13
2018-05-18T03:22:35.433Z,20.14
2018-05-18T03:23:35.265Z,20.13
2018-05-18T03:24:35.234Z,20.14
2018-05-18T03:25:35.461Z,20.14
2018-05-18T03:26:35.228Z,20.13
2018-05-18T03:27:35.173Z,20.12
2018-05-18T03:28:35.262Z,20.13
2018-05-18T03:29:35.378Z,20.12
2018-05-18T03:30:35.403Z,20.12
2018-05-18T03:31:35.318Z,20.13
2018-05-18T03:32:35.385Z,20.12
2018-05-18T03:33:35.405Z,20.12
2018-05-18T03:34:35.254Z,20.13
2018-05-18T03:35:35.357Z,20.12
2018-05-18T03:36:35.274Z,20.12
2018-05-18T03:37:35.491Z,20.12
2018-05-18T03:38:35.464Z,20.11
2018-05-18T03:39:35.297Z,20.12
2018-05-18T03:40:35.173Z,20.12
2018-05-18T03:41:35.338Z,20.12
2018-05-18T03:42:35.426Z,20.12
2018-05-18T03:43:35.531Z,20.12
2018-05-18T03:44:35.394Z,20.11
2018-05-18T03:45:35.360Z,20.12
2018-05-18T03:46:35.309Z,20.12
2018-05-18T03:47:35.221Z,20.11
2018-05-18T03:48:35.372Z,20.12
2018-05-18T03:49:35.307Z,20.12
2018-05-18T03:50:35.448Z,20.11
2018-05-18T03:51:35.385Z,20.11
2018-05-18T03:52:35.377Z,20.12
2018-05-18T03:53:35.433Z,20.11
2018-05-18T03:54:35.372Z,20.12
2018-05-18T03:55:35.320Z,20.12
2018-05-18T03:56:35.517Z,20.1
2018-05-18T03:57:35.367Z,20.11
2018-05-18T03:58:35.203Z,20.11
2018-05-18T03:59:35.371Z,20.1
2018-05-18T04:00:35.370Z,20.12
2018-05-18T04:01:35.178Z,20.12
2018-05-18T04:02:35.434Z,20.1
2018-05-18T04:03:35.445Z,20.11
2018-05-18T04:04:35.342Z,20.11
2018-05-18T04:05:35.311Z,20.09
2018-05-18T04:06:35.266Z,20.11
2018-05-18T04:07:35.210Z,20.11
2018-05-18T04:08:35.414Z,20.1
2018-05-18T04:09:35.483Z,20.12
2018-05-18T04:10:35.406Z,20.12
2018-05-18T04:11:35.366Z,20.1
2018-05-18T04:12:35.328Z,20.11
2018-05-18T04:13:35.275Z,20.11
2018-05-18T04:14:35.417Z,20.11
2018-05-18T04:15:35.417Z,20.12
2018-05-18T04:16:35.174Z,20.12
2018-05-18T04:17:35.185Z,20.09
2018-05-18T04:18:35.390Z,20.11
2018-05-18T04:19:35.241Z,20.11
2018-05-18T04:20:35.410Z,20.09
2018-05-18T04:21:35.379Z,20.11
2018-05-18T04:22:35.258Z,20.11
2018-05-18T04:23:35.451Z,20.09
2018-05-18T04:24:35.593Z,20.11
2018-05-18T04:25:35.227Z,20.12
2018-05-18T04:26:35.235Z,20.1
2018-05-18T04:27:35.301Z,20.11
2018-05-18T04:28:35.184Z,20.11
2018-05-18T04:29:35.289Z,20.1
2018-05-18T04:30:35.506Z,20.11
2018-05-18T04:31:35.381Z,20.11
2018-05-18T04:32:35.267Z,20.09
2018-05-18T04:33:35.349Z,20.1
2018-05-18T04:34:35.209Z,20.1
2018-05-18T04:35:35.456Z,20.09
2018-05-18T04:36:35.420Z,20.1
2018-05-18T04:37:35.470Z,20.11
2018-05-18T04:38:35.497Z,20.09
2018-05-18T04:39:35.436Z,20.11
2018-05-18T04:40:35.353Z,20.1
2018-05-18T04:41:35.437Z,20.09
2018-05-18T04:42:35.426Z,20.11
2018-05-18T04:43:35.357Z,20.1
2018-05-18T04:44:35.392Z,20.09
2018-05-18T04:45:35.260Z,20.1
2018-05-18T04:46:35.465Z,20.1
2018-05-18T04:47:35.517Z,20.1
2018-05-18T04:48:35.366Z,20.1
2018-05-18T04:49:35.254Z,20.1
2018-05-18T04:50:35.409Z,20.1
2018-05-18T04:51:35.230Z,20.11
2018-05-18T04:52:35.210Z,20.11
2018-05-18T04:53:35.305Z,20.09
2018-05-18T04:54:35.242Z,20.09
2018-05-18T04:55:35.334Z,20.1
2018-05-18T04:56:35.417Z,20.1
2018-05-18T04:57:35.343Z,20.11
2018-05-18T04:58:35.335Z,20.11
2018-05-18T04:59:35.386Z,20.09
2018-05-18T05:00:35.364Z,20.11
2018-05-18T05:01:35.141Z,20.11
2018-05-18T05:02:35.306Z,20.09
2018-05-18T05:03:35.418Z,20.1
2018-05-18T05:04:35.336Z,20.1
2018-05-18T05:05:35.740Z,20.09
2018-05-18T05:06:35.367Z,20.1
2018-05-18T05:07:35.397Z,20.11
2018-05-18T05:08:35.484Z,20.1
2018-05-18T05:09:35.335Z,20.11
2018-05-18T05:10:45.429Z,20.11
2018-05-18T05:11:35.494Z,20.1
2018-05-18T05:12:35.676Z,20.11
2018-05-18T05:13:35.251Z,20.11
2018-05-18T05:14:35.377Z,20.1
2018-05-18T05:15:35.305Z,20.11
2018-05-18T05:16:35.212Z,20.11
2018-05-18T05:17:35.380Z,20.09
2018-05-18T05:18:35.456Z,20.1
2018-05-18T05:19:35.478Z,20.11
2018-05-18T05:20:35.298Z,20.09
2018-05-18T05:21:35.517Z,20.11
2018-05-18T05:22:35.195Z,20.1
2018-05-18T05:23:35.639Z,20.09
2018-05-18T05:24:35.319Z,20.1
2018-05-18T05:25:35.274Z,20.1
2018-05-18T05:26:35.113Z,20.09
2018-05-18T05:27:35.421Z,20.1
2018-05-18T05:28:35.197Z,20.12
2018-05-18T05:29:35.450Z,20.1
2018-05-18T05:30:35.884Z,20.1
2018-05-18T05:31:35.331Z,20.11
2018-05-18T05:32:35.481Z,20.16
2018-05-18T05:33:35.383Z,20.2
2018-05-18T05:34:35.443Z,20.26
2018-05-18T05:35:35.185Z,20.26
2018-05-18T05:36:35.549Z,20.31
2018-05-18T05:37:35.312Z,20.33
2018-05-18T05:38:35.353Z,20.34
2018-05-18T05:39:35.251Z,20.39
2018-05-18T05:40:35.237Z,20.4
2018-05-18T05:41:35.378Z,20.42
2018-05-18T05:42:35.285Z,20.4
2018-05-18T05:43:35.445Z,20.42
2018-05-18T05:44:35.203Z,20.43
2018-05-18T05:45:35.167Z,20.47
2018-05-18T05:46:35.378Z,20.47
2018-05-18T05:47:35.452Z,20.47
2018-05-18T05:48:35.351Z,20.47
2018-05-18T05:49:35.368Z,20.49
2018-05-18T05:50:35.335Z,20.47
2018-05-18T05:51:35.322Z,20.48
2018-05-18T05:52:35.339Z,20.47
2018-05-18T05:53:35.126Z,20.48
2018-05-18T05:54:35.422Z,20.53
2018-05-18T05:55:35.361Z,20.51
2018-05-18T05:56:35.271Z,20.41
2018-05-18T05:57:35.234Z,20.41
2018-05-18T05:58:36.131Z,20.43
2018-05-18T05:59:35.378Z,20.43
2018-05-18T06:00:35.353Z,20.46
2018-05-18T06:01:35.384Z,20.41
2018-05-18T06:02:35.203Z,20.39
2018-05-18T06:03:35.299Z,20.41
2018-05-18T06:04:35.392Z,20.43
2018-05-18T06:05:35.338Z,20.44
2018-05-18T06:06:35.596Z,20.5
2018-05-18T06:07:35.276Z,20.52
2018-05-18T06:08:35.158Z,20.51
2018-05-18T06:09:35.452Z,20.54
2018-05-18T06:10:35.601Z,20.53
2018-05-18T06:11:35.340Z,20.52
2018-05-18T06:12:35.444Z,20.54
2018-05-18T06:13:35.250Z,20.49
2018-05-18T06:14:35.387Z,20.48
2018-05-18T06:15:35.215Z,20.51
2018-05-18T06:16:35.246Z,20.51
2018-05-18T06:17:35.593Z,20.53
2018-05-18T06:18:35.663Z,20.57
2018-05-18T06:19:36.011Z,20.55
2018-05-18T06:20:35.331Z,20.55
2018-05-18T06:21:35.308Z,20.46
2018-05-18T06:22:35.237Z,20.41
2018-05-18T06:23:35.178Z,20.5
2018-05-18T06:24:35.259Z,20.55
2018-05-18T06:25:35.422Z,20.61
2018-05-18T06:26:35.339Z,20.55
2018-05-18T06:27:45.234Z,20.59
2018-05-18T06:28:35.192Z,20.64
2018-05-18T06:29:35.289Z,20.64
2018-05-18T06:30:35.399Z,20.65
2018-05-18T06:31:35.432Z,20.66
2018-05-18T06:32:35.237Z,20.65
2018-05-18T06:33:35.262Z,20.63
2018-05-18T06:34:35.636Z,20.64
2018-05-18T06:35:35.284Z,20.63
2018-05-18T06:36:35.313Z,20.68
2018-05-18T06:37:35.200Z,20.73
2018-05-18T06:38:35.358Z,20.69
2018-05-18T06:39:35.214Z,20.65
2018-05-18T06:40:35.174Z,20.65
2018-05-18T06:41:35.299Z,20.68
2018-05-18T06:42:35.408Z,20.71
2018-05-18T06:43:35.221Z,20.71
2018-05-18T06:44:35.243Z,20.7
2018-05-18T06:45:35.588Z,20.69
2018-05-18T06:46:35.147Z,20.7
2018-05-18T06:47:35.480Z,20.69
2018-05-18T06:48:35.411Z,20.68
2018-05-18T06:49:35.421Z,20.68
2018-05-18T06:50:35.217Z,20.66
2018-05-18T06:51:35.358Z,20.71
2018-05-18T06:52:35.681Z,20.71
2018-05-18T06:53:35.231Z,20.7
2018-05-18T06:54:35.416Z,20.71
2018-05-18T06:55:35.384Z,20.77
2018-05-18T06:56:35.224Z,20.75
2018-05-18T06:57:35.453Z,20.76
2018-05-18T06:58:35.365Z,20.77
2018-05-18T06:59:35.459Z,20.72
2018-05-18T07:00:35.247Z,20.72
2018-05-18T07:01:35.148Z,20.71
2018-05-18T07:02:35.215Z,20.71
2018-05-18T07:03:35.241Z,20.72
2018-05-18T07:04:35.507Z,20.72
2018-05-18T07:05:35.186Z,20.76
2018-05-18T07:06:35.395Z,20.7
2018-05-18T07:07:35.284Z,20.71
2018-05-18T07:08:35.378Z,20.7
2018-05-18T07:09:35.363Z,20.71
2018-05-18T07:10:35.823Z,20.71
2018-05-18T07:11:35.353Z,20.72
2018-05-18T07:12:35.321Z,20.74
2018-05-18T07:13:35.409Z,20.76
2018-05-18T07:14:35.348Z,20.77
2018-05-18T07:15:35.384Z,20.78
2018-05-18T07:16:36.075Z,20.8
2018-05-18T07:17:35.390Z,20.81
2018-05-18T07:18:35.170Z,20.82
2018-05-18T07:19:35.516Z,20.82
2018-05-18T07:20:35.177Z,20.78
2018-05-18T07:21:35.243Z,20.82
2018-05-18T07:22:35.396Z,20.84
2018-05-18T07:23:35.324Z,20.83
2018-05-18T07:24:35.334Z,20.84
2018-05-18T07:25:35.261Z,20.84
2018-05-18T07:26:35.571Z,20.78
2018-05-18T07:27:35.269Z,20.74
2018-05-18T07:28:35.132Z,20.7
2018-05-18T07:29:35.348Z,20.69
2018-05-18T07:30:35.112Z,20.7
2018-05-18T07:31:35.280Z,20.7
2018-05-18T07:32:35.466Z,20.67
2018-05-18T07:33:35.432Z,20.68
2018-05-18T07:34:35.114Z,20.66
2018-05-18T07:35:35.364Z,20.67
2018-05-18T07:36:35.450Z,20.67
2018-05-18T07:37:35.219Z,20.66
2018-05-18T07:38:35.444Z,20.65
2018-05-18T07:39:35.189Z,20.64
2018-05-18T07:40:35.448Z,20.65
2018-05-18T07:41:35.380Z,20.64
2018-05-18T07:42:35.516Z,20.64
2018-05-18T07:43:35.352Z,20.62
2018-05-18T07:44:35.269Z,20.63
2018-05-18T07:45:35.301Z,20.62
2018-05-18T07:46:35.426Z,20.63
2018-05-18T07:47:35.389Z,20.6
2018-05-18T07:48:35.092Z,20.62
2018-05-18T07:49:35.329Z,20.61
2018-05-18T07:50:35.384Z,20.61
2018-05-18T07:51:35.289Z,20.62
2018-05-18T07:52:35.201Z,20.61
2018-05-18T07:53:35.878Z,20.6
2018-05-18T07:54:35.321Z,20.61
2018-05-18T07:55:35.537Z,20.6
2018-05-18T07:56:35.222Z,20.58
2018-05-18T07:57:35.264Z,20.56
2018-05-18T07:58:35.120Z,20.61
2018-05-18T07:59:35.911Z,20.61
2018-05-18T08:00:35.309Z,20.59
2018-05-18T08:01:35.252Z,20.64
2018-05-18T08:02:35.276Z,20.65
2018-05-18T08:03:35.379Z,20.69
2018-05-18T08:04:35.354Z,20.71
2018-05-18T08:05:35.131Z,20.7
2018-05-18T08:06:35.163Z,20.71
2018-05-18T08:07:35.150Z,20.72
2018-05-18T08:08:35.347Z,20.71
2018-05-18T08:09:35.997Z,20.68
2018-05-18T08:10:36.149Z,20.7
2018-05-18T08:11:35.895Z,20.69
2018-05-18T08:12:35.874Z,20.71
2018-05-18T08:13:36.128Z,20.7
2018-05-18T08:14:36.021Z,20.65
2018-05-18T08:15:35.813Z,20.68
2018-05-18T08:16:35.960Z,20.67
2018-05-18T08:17:36.025Z,20.65
2018-05-18T08:18:35.835Z,20.69
2018-05-18T08:19:35.903Z,20.69
2018-05-18T08:20:35.867Z,20.67
2018-05-18T08:21:36.220Z,20.7
2018-05-18T08:22:35.865Z,20.68
2018-05-18T08:23:35.784Z,20.67
2018-05-18T08:24:35.806Z,20.68
2018-05-18T08:25:35.922Z,20.7
2018-05-18T08:26:36.030Z,20.66
2018-05-18T08:27:36.112Z,20.69
2018-05-18T08:28:35.809Z,20.67
2018-05-18T08:29:36.075Z,20.65
2018-05-18T08:30:35.949Z,20.66
2018-05-18T08:31:36.103Z,20.66
2018-05-18T08:32:35.905Z,20.65
2018-05-18T08:33:35.817Z,20.67
2018-05-18T08:34:35.948Z,20.66
2018-05-18T08:35:35.928Z,20.65
2018-05-18T08:36:35.923Z,20.68
2018-05-18T08:37:35.914Z,20.64
2018-05-18T08:38:35.873Z,20.59
2018-05-18T08:39:35.123Z,20.58
2018-05-18T08:40:35.294Z,20.59
2018-05-18T08:41:35.243Z,20.54
2018-05-18T08:42:35.201Z,20.57
2018-05-18T08:43:35.252Z,20.56
2018-05-18T08:44:35.305Z,20.55
2018-05-18T08:45:35.310Z,20.58
2018-05-18T08:46:35.143Z,20.57
2018-05-18T08:47:36.025Z,20.54
2018-05-18T08:48:35.208Z,20.55
2018-05-18T08:49:35.540Z,20.54
2018-05-18T08:50:35.323Z,20.53
2018-05-18T08:51:45.285Z,20.53
2018-05-18T08:52:35.290Z,20.53
2018-05-18T08:53:35.210Z,20.52
2018-05-18T08:54:35.373Z,20.52
2018-05-18T08:55:35.308Z,20.52
2018-05-18T08:56:35.263Z,20.5
2018-05-18T08:57:35.271Z,20.51
2018-05-18T08:58:35.171Z,20.52
2018-05-18T08:59:35.447Z,20.49
2018-05-18T09:00:35.600Z,20.51
2018-05-18T09:01:35.299Z,20.52
2018-05-18T09:02:35.165Z,20.48
2018-05-18T09:03:35.235Z,20.48
2018-05-18T09:04:35.488Z,20.51
2018-05-18T09:05:35.381Z,20.48
2018-05-18T09:06:35.410Z,20.48
2018-05-18T09:07:35.116Z,20.5
2018-05-18T09:08:35.234Z,20.48
2018-05-18T09:09:35.242Z,20.48
2018-05-18T09:10:35.270Z,20.5
2018-05-18T09:11:35.353Z,20.49
2018-05-18T09:12:35.189Z,20.49
2018-05-18T09:13:35.349Z,20.49
2018-05-18T09:14:35.384Z,20.48
2018-05-18T09:15:35.212Z,20.49
2018-05-18T09:16:35.160Z,20.49
2018-05-18T09:17:35.273Z,20.49
2018-05-18T09:18:35.179Z,20.49
2018-05-18T09:20:35.215Z,20.47
2018-05-18T09:21:35.380Z,20.49
2018-05-18T09:22:35.167Z,20.47
2018-05-18T09:23:35.200Z,20.46
2018-05-18T09:24:35.325Z,20.46
2018-05-18T09:25:35.128Z,20.47
2018-05-18T09:26:35.226Z,20.46
2018-05-18T09:27:35.366Z,20.47
2018-05-18T09:28:35.242Z,20.47
2018-05-18T09:29:35.379Z,20.45
2018-05-18T09:30:35.317Z,20.47
2018-05-18T09:31:35.308Z,20.47
2018-05-18T09:32:35.253Z,20.46
2018-05-18T09:33:35.378Z,20.46
2018-05-18T09:34:35.049Z,20.47
2018-05-18T09:35:35.240Z,20.44
2018-05-18T09:36:35.121Z,20.46
2018-05-18T09:37:35.311Z,20.45
2018-05-18T09:38:35.075Z,20.43
2018-05-18T09:39:35.284Z,20.45
2018-05-18T09:40:35.150Z,20.45
2018-05-18T09:41:35.136Z,20.43
2018-05-18T09:42:35.280Z,20.45
2018-05-18T09:43:35.218Z,20.43
2018-05-18T09:44:35.284Z,20.42
2018-05-18T09:45:35.198Z,20.43
2018-05-18T09:46:35.188Z,20.43
2018-05-18T09:47:35.163Z,20.41
2018-05-18T09:48:35.374Z,20.43
2018-05-18T09:49:35.344Z,20.43
2018-05-18T09:50:35.328Z,20.41
2018-05-18T09:51:35.353Z,20.42
2018-05-18T09:52:35.116Z,20.44
2018-05-18T09:53:35.110Z,20.43
2018-05-18T09:54:36.304Z,20.43
2018-05-18T09:55:36.402Z,20.43
2018-05-18T09:56:35.207Z,20.41
2018-05-18T09:57:35.316Z,20.42
2018-05-18T09:58:35.277Z,20.42
2018-05-18T09:59:35.261Z,20.41
2018-05-18T10:00:35.732Z,20.43
2018-05-18T10:01:35.031Z,20.42
2018-05-18T10:02:35.337Z,20.41
2018-05-18T10:03:35.109Z,20.41
2018-05-18T10:04:35.262Z,20.41
2018-05-18T10:05:35.168Z,20.4
2018-05-18T10:06:35.143Z,20.41
2018-05-18T10:07:35.154Z,20.41
2018-05-18T10:08:35.273Z,20.4
2018-05-18T10:09:35.280Z,20.41
2018-05-18T10:10:35.177Z,20.41
2018-05-18T10:11:35.140Z,20.4
2018-05-18T10:12:35.111Z,20.41
2018-05-18T10:13:35.317Z,20.41
2018-05-18T10:14:35.275Z,20.39
2018-05-18T10:15:35.346Z,20.39
2018-05-18T10:16:35.139Z,20.4
2018-05-18T10:17:35.353Z,20.37
2018-05-18T10:18:35.692Z,20.37
2018-05-18T10:19:35.293Z,20.38
2018-05-18T10:20:35.089Z,20.36
2018-05-18T10:21:35.073Z,20.38
2018-05-18T10:22:35.114Z,20.38
2018-05-18T10:23:35.267Z,20.38
2018-05-18T10:24:35.296Z,20.39
2018-05-18T10:25:35.083Z,20.39
2018-05-18T10:26:35.277Z,20.37
2018-05-18T10:27:35.143Z,20.39
2018-05-18T10:28:35.409Z,20.41
2018-05-18T10:29:35.361Z,20.37
2018-05-18T10:30:35.063Z,20.37
2018-05-18T10:31:35.289Z,20.36
2018-05-18T10:32:35.312Z,20.36
2018-05-18T10:33:35.194Z,20.37
2018-05-18T10:34:35.316Z,20.38
2018-05-18T10:35:35.182Z,20.37
2018-05-18T10:36:35.123Z,20.38
2018-05-18T10:37:35.229Z,20.37
2018-05-18T10:38:35.311Z,20.35
2018-05-18T10:39:45.716Z,20.36
2018-05-18T10:40:35.313Z,20.37
2018-05-18T10:41:35.111Z,20.35
2018-05-18T10:42:35.115Z,20.36
2018-05-18T10:43:35.266Z,20.37
2018-05-18T10:44:35.286Z,20.35
2018-05-18T10:45:35.255Z,20.36
2018-05-18T10:46:35.210Z,20.36
2018-05-18T10:47:35.180Z,20.35
2018-05-18T10:48:35.336Z,20.35
2018-05-18T10:49:35.245Z,20.36
2018-05-18T10:50:35.280Z,20.35
2018-05-18T10:51:35.172Z,20.35
2018-05-18T10:52:35.183Z,20.36
2018-05-18T10:53:35.311Z,20.35
2018-05-18T10:54:35.347Z,20.36
2018-05-18T10:55:45.185Z,20.38
2018-05-18T10:56:35.375Z,20.4
2018-05-18T10:57:35.223Z,20.46
2018-05-18T10:58:35.656Z,20.49
2018-05-18T10:59:35.288Z,20.47
2018-05-18T11:00:35.317Z,20.51
2018-05-18T11:01:35.392Z,20.53
2018-05-18T11:02:35.206Z,20.52
2018-05-18T11:03:35.159Z,20.47
2018-05-18T11:04:35.183Z,20.47
2018-05-18T11:05:35.069Z,20.5
2018-05-18T11:06:35.262Z,20.53
2018-05-18T11:07:35.297Z,20.53
2018-05-18T11:08:35.176Z,20.56
2018-05-18T11:09:35.302Z,20.55
2018-05-18T11:10:35.223Z,20.58
2018-05-18T11:11:35.106Z,20.58
2018-05-18T11:12:35.252Z,20.59
2018-05-18T11:13:35.302Z,20.59
2018-05-18T11:14:35.348Z,20.59
2018-05-18T11:15:35.358Z,20.61
2018-05-18T11:16:35.263Z,20.62
2018-05-18T11:17:35.159Z,20.58
2018-05-18T11:18:35.280Z,20.57
2018-05-18T11:19:35.200Z,20.55
2018-05-18T11:20:35.202Z,20.56
2018-05-18T11:21:35.172Z,20.57
2018-05-18T11:22:35.288Z,20.58
2018-05-18T11:23:35.223Z,20.55
2018-05-18T11:24:35.145Z,20.55
2018-05-18T11:25:35.357Z,20.54
2018-05-18T11:26:35.093Z,20.55
2018-05-18T11:27:35.323Z,20.55
2018-05-18T11:28:35.180Z,20.54
2018-05-18T11:29:35.059Z,20.53
2018-05-18T11:30:35.170Z,20.55
2018-05-18T11:31:35.144Z,20.54
2018-05-18T11:32:35.176Z,20.53
2018-05-18T11:33:35.171Z,20.54
2018-05-18T11:34:35.265Z,20.53
2018-05-18T11:35:35.099Z,20.53
2018-05-18T11:36:35.366Z,20.54
2018-05-18T11:37:35.289Z,20.54
2018-05-18T11:38:35.044Z,20.53
2018-05-18T11:39:35.246Z,20.55
2018-05-18T11:40:35.232Z,20.54
2018-05-18T11:41:35.266Z,20.53
2018-05-18T11:42:35.222Z,20.54
2018-05-18T11:43:35.153Z,20.53
2018-05-18T11:44:35.074Z,20.53
2018-05-18T11:45:35.287Z,20.53
2018-05-18T11:46:35.325Z,20.52
2018-05-18T11:47:34.950Z,20.51
2018-05-18T11:48:35.371Z,20.47
2018-05-18T11:49:35.139Z,20.47
2018-05-18T11:50:35.274Z,20.45
2018-05-18T11:51:35.071Z,20.46
2018-05-18T11:52:35.166Z,20.44
2018-05-18T11:53:35.319Z,20.42
2018-05-18T11:54:35.790Z,20.42
2018-05-18T11:55:35.337Z,20.43
2018-05-18T11:56:35.078Z,20.42
2018-05-18T11:57:35.196Z,20.41
2018-05-18T11:58:35.341Z,20.41
2018-05-18T11:59:35.312Z,20.41
2018-05-18T12:00:35.345Z,20.41
2018-05-18T12:01:35.130Z,20.41
2018-05-18T12:02:35.409Z,20.4
2018-05-18T12:03:35.158Z,20.41
2018-05-18T12:04:35.118Z,20.41
2018-05-18T12:05:35.128Z,20.39
2018-05-18T12:06:35.236Z,20.4
2018-05-18T12:07:35.256Z,20.4
2018-05-18T12:08:35.754Z,20.38
2018-05-18T12:09:35.179Z,20.39
2018-05-18T12:10:35.183Z,20.39
2018-05-18T12:11:35.302Z,20.38
2018-05-18T12:12:35.280Z,20.38
2018-05-18T12:13:35.116Z,20.38
2018-05-18T12:14:35.089Z,20.37
2018-05-18T12:15:35.325Z,20.38
2018-05-18T12:16:35.153Z,20.4
2018-05-18T12:17:35.146Z,20.38
2018-05-18T12:18:35.140Z,20.37
2018-05-18T12:19:35.305Z,20.39
2018-05-18T12:20:35.314Z,20.37
2018-05-18T12:21:35.508Z,20.38
2018-05-18T12:22:35.304Z,20.38
2018-05-18T12:23:35.330Z,20.37
2018-05-18T12:24:35.319Z,20.38
2018-05-18T12:25:35.380Z,20.38
2018-05-18T12:26:35.337Z,20.37
2018-05-18T12:27:35.331Z,20.37
2018-05-18T12:28:35.342Z,20.37
2018-05-18T12:29:35.305Z,20.36
2018-05-18T12:30:36.046Z,20.37
2018-05-18T12:31:36.051Z,20.37
2018-05-18T12:32:35.307Z,20.36
2018-05-18T12:33:35.398Z,20.37
2018-05-18T12:34:35.396Z,20.35
2018-05-18T12:35:35.378Z,20.34
2018-05-18T12:36:35.259Z,20.41
2018-05-18T12:37:35.444Z,20.46
2018-05-18T12:38:35.424Z,20.46
2018-05-18T12:39:35.391Z,20.47
2018-05-18T12:40:35.436Z,20.5
2018-05-18T12:41:35.466Z,20.44
2018-05-18T12:42:35.450Z,20.47
2018-05-18T12:43:35.384Z,20.51
2018-05-18T12:44:36.003Z,20.57
2018-05-18T12:45:35.465Z,20.58
2018-05-18T12:46:35.454Z,20.59
2018-05-18T12:47:35.487Z,20.59
2018-05-18T12:48:35.484Z,20.61
2018-05-18T12:49:35.498Z,20.59
2018-05-18T12:50:35.119Z,20.59
2018-05-18T12:51:35.519Z,20.59
2018-05-18T12:52:35.463Z,20.59
2018-05-18T12:53:35.461Z,20.54
2018-05-18T12:54:35.053Z,20.55
2018-05-18T12:55:35.542Z,20.57
2018-05-18T12:56:35.554Z,20.56